createdAt,value
2018-09-19T00:00:17.823Z,7.03
2018-09-19T00:02:46.123Z,7.63
2018-09-19T00:05:14.409Z,6.83
2018-09-19T00:07:42.868Z,6.10
2018-09-19T00:10:11.179Z,7.50
2018-09-19T00:12:39.463Z,7.40
2018-09-19T00:15:07.873Z,6.70
2018-09-19T00:17:36.231Z,7.50
2018-09-19T00:20:04.729Z,6.50
2018-09-19T00:22:33.116Z,6.60
2018-09-19T00:25:01.470Z,6.50
2018-09-19T00:27:29.754Z,6.53
2018-09-19T00:29:58.027Z,6.63
2018-09-19T00:32:26.317Z,6.70
2018-09-19T00:34:54.651Z,6.50
2018-09-19T00:37:22.951Z,6.60
2018-09-19T00:39:51.252Z,6.40
2018-09-19T00:42:19.544Z,6.40
2018-09-19T00:44:47.912Z,6.87
2018-09-19T00:47:16.205Z,7.10
2018-09-19T00:49:44.481Z,6.10
2018-09-19T00:52:12.809Z,6.67
2018-09-19T00:54:41.161Z,8.00
2018-09-19T00:57:09.554Z,6.80
2018-09-19T00:59:37.969Z,6.90
2018-09-19T01:02:06.567Z,6.60
2018-09-19T01:04:34.914Z,6.73
2018-09-19T01:07:03.261Z,6.17
2018-09-19T01:09:31.561Z,6.90
2018-09-19T01:11:59.833Z,7.00
2018-09-19T01:14:28.207Z,7.40
2018-09-19T01:16:56.473Z,6.80
2018-09-19T01:19:24.771Z,6.30
2018-09-19T01:21:53.067Z,6.93
2018-09-19T01:24:21.367Z,6.40
2018-09-19T01:26:49.718Z,6.43
2018-09-19T01:29:18.061Z,6.77
2018-09-19T01:31:46.465Z,7.10
2018-09-19T01:34:14.759Z,6.80
2018-09-19T01:36:43.103Z,7.07
2018-09-19T01:39:11.499Z,6.30
2018-09-19T01:41:39.793Z,6.90
2018-09-19T01:44:08.125Z,7.33
2018-09-19T01:46:36.426Z,7.47
2018-09-19T01:49:04.801Z,6.90
2018-09-19T01:51:33.073Z,7.60
2018-09-19T01:54:01.397Z,7.33
2018-09-19T01:56:30.519Z,8.03
2018-09-19T01:58:58.881Z,8.17
2018-09-19T02:01:27.213Z,8.80
2018-09-19T02:03:55.509Z,8.43
2018-09-19T02:06:23.814Z,8.13
2018-09-19T02:08:52.092Z,7.33
2018-09-19T02:11:20.377Z,7.50
2018-09-19T02:13:48.695Z,6.70
2018-09-19T02:16:17.022Z,7.30
2018-09-19T02:18:45.322Z,8.20
2018-09-19T02:21:13.639Z,8.10
2018-09-19T02:23:41.913Z,8.13
2018-09-19T02:26:10.286Z,7.93
2018-09-19T02:28:38.628Z,8.47
2018-09-19T02:31:07.033Z,8.40
2018-09-19T02:33:35.336Z,9.07
2018-09-19T02:36:03.632Z,7.70
2018-09-19T02:38:31.936Z,9.20
2018-09-19T02:41:00.201Z,9.17
2018-09-19T02:43:28.544Z,9.57
2018-09-19T02:45:56.859Z,8.07
2018-09-19T02:48:25.151Z,8.47
2018-09-19T02:50:53.473Z,9.27
2018-09-19T02:53:22.735Z,8.80
2018-09-19T02:55:51.069Z,8.43
2018-09-19T02:58:19.346Z,7.80
2018-09-19T03:00:47.662Z,9.00
2018-09-19T03:03:15.926Z,7.93
2018-09-19T03:05:44.240Z,7.40
2018-09-19T03:08:12.551Z,8.53
2018-09-19T03:10:40.827Z,8.17
2018-09-19T03:13:09.133Z,8.00
2018-09-19T03:15:37.457Z,8.50
2018-09-19T03:18:05.785Z,8.10
2018-09-19T03:20:34.097Z,9.13
2018-09-19T03:23:02.407Z,8.20
2018-09-19T03:25:30.755Z,7.67
2018-09-19T03:27:59.061Z,9.00
2018-09-19T03:30:27.379Z,8.33
2018-09-19T03:32:55.681Z,9.50
2018-09-19T03:35:24.149Z,9.20
2018-09-19T03:37:52.409Z,8.00
2018-09-19T03:40:20.682Z,8.47
2018-09-19T03:42:49.031Z,8.67
2018-09-19T03:45:17.327Z,8.23
2018-09-19T03:47:45.630Z,8.17
2018-09-19T03:50:13.966Z,9.07
2018-09-19T03:52:42.512Z,8.27
2018-09-19T03:55:10.818Z,8.30
2018-09-19T03:57:39.164Z,8.33
2018-09-19T04:00:07.507Z,8.93
2018-09-19T04:02:35.833Z,9.13
2018-09-19T04:05:04.176Z,9.80
2018-09-19T04:07:32.435Z,9.77
2018-09-19T04:10:00.768Z,8.23
2018-09-19T04:12:29.053Z,8.57
2018-09-19T04:14:57.417Z,9.87
2018-09-19T04:17:25.837Z,9.30
2018-09-19T04:19:54.168Z,9.50
2018-09-19T04:22:22.519Z,9.03
2018-09-19T04:24:50.849Z,9.47
2018-09-19T04:27:19.166Z,9.00
2018-09-19T04:29:47.465Z,8.47
2018-09-19T04:32:15.831Z,7.60
2018-09-19T04:34:44.155Z,9.00
2018-09-19T04:37:12.452Z,9.07
2018-09-19T04:39:40.761Z,7.97
2018-09-19T04:42:09.136Z,8.17
2018-09-19T04:44:37.459Z,8.43
2018-09-19T04:47:05.759Z,8.30
2018-09-19T04:49:34.051Z,8.30
2018-09-19T04:52:02.376Z,9.47
2018-09-19T04:54:30.665Z,8.97
2018-09-19T04:56:58.990Z,9.93
2018-09-19T04:59:27.315Z,8.97
2018-09-19T05:01:55.603Z,9.00
2018-09-19T05:04:23.910Z,8.63
2018-09-19T05:06:52.409Z,8.77
2018-09-19T05:09:20.731Z,9.10
2018-09-19T05:11:49.081Z,10.00
2018-09-19T05:14:17.383Z,9.50
2018-09-19T05:16:45.677Z,9.27
2018-09-19T05:19:13.965Z,9.13
2018-09-19T05:21:42.305Z,9.53
2018-09-19T05:24:10.587Z,9.20
2018-09-19T05:26:39.015Z,9.33
2018-09-19T05:29:07.316Z,8.30
2018-09-19T05:31:35.777Z,10.07
2018-09-19T05:34:04.039Z,9.60
2018-09-19T05:36:32.503Z,10.63
2018-09-19T05:39:00.804Z,9.63
2018-09-19T05:41:29.150Z,8.90
2018-09-19T05:43:57.481Z,9.00
2018-09-19T05:46:25.910Z,10.43
2018-09-19T05:48:54.501Z,9.30
2018-09-19T05:51:22.783Z,9.30
2018-09-19T05:53:51.157Z,10.53
2018-09-19T05:56:19.483Z,9.80
2018-09-19T05:58:47.951Z,9.47
2018-09-19T06:01:16.925Z,9.60
2018-09-19T06:03:46.172Z,9.60
2018-09-19T06:06:14.552Z,9.40
2018-09-19T06:08:42.887Z,8.97
2018-09-19T06:11:11.203Z,9.10
2018-09-19T06:13:39.522Z,9.63
2018-09-19T06:16:07.829Z,9.47
2018-09-19T06:18:36.161Z,10.40
2018-09-19T06:21:07.469Z,9.80
2018-09-19T06:23:35.755Z,9.97
2018-09-19T06:26:04.087Z,8.43
2018-09-19T06:28:32.387Z,10.30
2018-09-19T06:31:00.691Z,9.20
2018-09-19T06:33:29.298Z,10.60
2018-09-19T06:35:57.563Z,9.53
2018-09-19T06:38:25.980Z,10.80
2018-09-19T06:40:54.392Z,10.60
2018-09-19T06:43:22.648Z,9.93
2018-09-19T06:45:51.163Z,9.60
2018-09-19T06:48:19.506Z,8.80
2018-09-19T06:50:47.784Z,9.73
2018-09-19T06:53:16.090Z,9.57
2018-09-19T06:55:44.434Z,10.13
2018-09-19T06:58:12.748Z,10.50
2018-09-19T07:00:41.156Z,8.53
2018-09-19T07:03:09.423Z,9.27
2018-09-19T07:05:37.755Z,9.50
2018-09-19T07:08:06.379Z,8.30
2018-09-19T07:10:34.699Z,8.13
2018-09-19T07:13:03.009Z,8.70
2018-09-19T07:15:31.295Z,8.70
2018-09-19T07:17:59.603Z,8.40
2018-09-19T07:20:27.942Z,9.17
2018-09-19T07:22:56.529Z,9.87
2018-09-19T07:25:24.864Z,9.30
2018-09-19T07:27:53.178Z,7.70
2018-09-19T07:30:21.452Z,8.30
2018-09-19T07:32:49.792Z,8.40
2018-09-19T07:35:18.208Z,7.57
2018-09-19T07:37:46.521Z,8.27
2018-09-19T07:40:14.855Z,7.93
2018-09-19T07:42:43.137Z,7.60
2018-09-19T07:45:11.438Z,8.60
2018-09-19T07:47:39.746Z,9.37
2018-09-19T07:50:08.773Z,8.53
2018-09-19T07:52:37.117Z,8.33
2018-09-19T07:55:05.588Z,7.90
2018-09-19T07:57:33.915Z,8.23
2018-09-19T08:00:02.217Z,8.20
2018-09-19T08:02:30.538Z,7.67
2018-09-19T08:04:58.901Z,8.13
2018-09-19T08:07:27.201Z,8.07
2018-09-19T08:09:55.579Z,6.90
2018-09-19T08:12:23.877Z,7.20
2018-09-19T08:14:52.149Z,6.90
2018-09-19T08:17:20.836Z,7.73
2018-09-19T08:19:49.160Z,7.43
2018-09-19T08:22:17.525Z,7.80
2018-09-19T08:24:45.866Z,7.30
2018-09-19T08:27:14.256Z,6.70
2018-09-19T08:29:42.640Z,7.10
2018-09-19T08:32:10.965Z,7.17
2018-09-19T08:34:39.253Z,6.80
2018-09-19T08:37:07.573Z,6.63
2018-09-19T08:39:35.991Z,6.70
2018-09-19T08:42:04.317Z,7.87
2018-09-19T08:44:32.637Z,7.20
2018-09-19T08:47:00.962Z,6.80
2018-09-19T08:49:29.265Z,6.20
2018-09-19T08:51:57.569Z,6.70
2018-09-19T08:54:25.904Z,6.80
2018-09-19T08:56:54.263Z,7.07
2018-09-19T08:59:22.597Z,7.10
2018-09-19T09:01:50.957Z,6.90
2018-09-19T09:04:19.249Z,6.30
2018-09-19T09:06:47.533Z,6.70
2018-09-19T09:09:15.845Z,6.93
2018-09-19T09:11:44.143Z,6.50
2018-09-19T09:14:12.472Z,7.30
2018-09-19T09:16:40.782Z,6.07
2018-09-19T09:19:09.104Z,7.10
2018-09-19T09:21:37.414Z,6.07
2018-09-19T09:24:05.717Z,6.20
2018-09-19T09:26:34.033Z,5.50
2018-09-19T09:29:02.425Z,6.40
2018-09-19T09:31:30.866Z,5.67
2018-09-19T09:33:59.191Z,5.93
2018-09-19T09:36:27.659Z,6.20
2018-09-19T09:38:56.061Z,5.97
2018-09-19T09:41:24.376Z,5.63
2018-09-19T09:43:52.835Z,5.93
2018-09-19T09:46:21.167Z,5.30
2018-09-19T09:48:50.535Z,5.80
2018-09-19T09:51:18.950Z,5.87
2018-09-19T09:53:47.370Z,5.23
2018-09-19T09:56:15.679Z,5.90
2018-09-19T09:58:44.103Z,5.17
2018-09-19T10:01:12.567Z,4.40
2018-09-19T10:03:40.809Z,4.73
2018-09-19T10:06:09.152Z,5.30
2018-09-19T10:08:37.546Z,4.90
2018-09-19T10:11:06.254Z,5.07
2018-09-19T10:13:34.611Z,5.23
2018-09-19T10:16:02.941Z,5.13
2018-09-19T10:18:31.630Z,4.60
2018-09-19T10:21:00.639Z,5.90
2018-09-19T10:23:28.921Z,6.13
2018-09-19T10:25:57.245Z,5.50
2018-09-19T10:28:25.538Z,5.97
2018-09-19T10:30:53.847Z,4.70
2018-09-19T10:33:22.490Z,5.10
2018-09-19T10:35:50.767Z,5.40
2018-09-19T10:38:19.248Z,5.43
2018-09-19T10:40:47.528Z,4.37
2018-09-19T10:43:15.873Z,4.67
2018-09-19T10:45:44.174Z,5.27
2018-09-19T10:48:12.565Z,4.83
2018-09-19T10:50:40.874Z,5.10
2018-09-19T10:53:09.201Z,4.10
2018-09-19T10:55:37.622Z,3.77
2018-09-19T10:58:05.953Z,4.23
2018-09-19T11:00:34.269Z,4.07
2018-09-19T11:03:02.642Z,3.80
2018-09-19T11:05:30.946Z,5.20
2018-09-19T11:07:59.239Z,4.13
2018-09-19T11:10:27.644Z,4.63
2018-09-19T11:12:55.940Z,3.77
2018-09-19T11:15:24.223Z,3.80
2018-09-19T11:17:52.615Z,4.03
2018-09-19T11:20:20.974Z,4.83
2018-09-19T11:22:49.302Z,4.20
2018-09-19T11:25:17.618Z,4.10
2018-09-19T11:27:45.990Z,5.00
2018-09-19T11:30:14.318Z,4.17
2018-09-19T11:32:42.721Z,4.87
2018-09-19T11:35:11.037Z,4.70
2018-09-19T11:37:39.350Z,4.57
2018-09-19T11:40:07.777Z,4.73
2018-09-19T11:42:36.075Z,5.23
2018-09-19T11:45:04.391Z,6.50
2018-09-19T11:47:32.705Z,4.93
2018-09-19T11:50:01.057Z,4.40
2018-09-19T11:52:29.401Z,5.40
2018-09-19T11:54:57.755Z,4.43
2018-09-19T11:57:26.159Z,4.60
2018-09-19T11:59:54.529Z,4.20
2018-09-19T12:02:22.899Z,5.50
2018-09-19T12:04:51.803Z,4.90
2018-09-19T12:07:20.523Z,4.87
2018-09-19T12:09:48.757Z,4.77
2018-09-19T12:12:17.062Z,4.70
2018-09-19T12:14:45.345Z,5.00
2018-09-19T12:17:13.633Z,4.53
2018-09-19T12:19:41.962Z,4.90
2018-09-19T12:22:10.357Z,5.00
2018-09-19T12:24:38.701Z,4.53
2018-09-19T12:27:07.047Z,4.60
2018-09-19T12:29:35.341Z,4.70
2018-09-19T12:32:04.262Z,4.47
2018-09-19T12:34:32.581Z,4.63
2018-09-19T12:37:00.861Z,4.40
2018-09-19T12:39:29.282Z,4.57
2018-09-19T12:41:57.525Z,4.40
2018-09-19T12:44:25.827Z,4.50
2018-09-19T12:46:54.153Z,4.53
2018-09-19T12:49:22.441Z,4.50
2018-09-19T12:51:51.015Z,4.50
2018-09-19T12:54:19.369Z,5.33
2018-09-19T12:56:47.799Z,4.70
2018-09-19T12:59:16.167Z,5.13
2018-09-19T13:01:44.487Z,5.20
2018-09-19T13:04:12.847Z,4.87
2018-09-19T13:06:41.131Z,5.37
2018-09-19T13:09:10.675Z,5.80
2018-09-19T13:11:39.227Z,5.37
2018-09-19T13:14:07.709Z,4.93
2018-09-19T13:16:36.025Z,5.23
2018-09-19T13:19:04.393Z,5.90
2018-09-19T13:21:32.670Z,4.43
2018-09-19T13:24:01.091Z,4.33
2018-09-19T13:26:29.600Z,4.63
2018-09-19T13:28:57.879Z,4.50
2018-09-19T13:31:26.148Z,5.10
2018-09-19T13:33:54.446Z,4.90
2018-09-19T13:36:22.767Z,4.80
2018-09-19T13:38:51.027Z,4.80
2018-09-19T13:41:19.424Z,5.37
2018-09-19T13:43:47.747Z,5.83
2018-09-19T13:46:16.348Z,5.17
2018-09-19T13:48:47.826Z,4.80
2018-09-19T13:51:20.027Z,5.33
2018-09-19T13:53:48.365Z,4.97
2018-09-19T13:56:16.702Z,5.40
2018-09-19T13:58:45.206Z,4.97
2018-09-19T14:01:13.857Z,4.63
2018-09-19T14:03:42.332Z,8.37
2018-09-19T14:06:10.589Z,5.60
2018-09-19T14:08:38.924Z,4.30
2018-09-19T14:11:07.313Z,5.40
2018-09-19T14:13:35.641Z,4.77
2018-09-19T14:16:04.119Z,5.20
2018-09-19T14:18:32.865Z,4.97
2018-09-19T14:21:01.285Z,4.60
2018-09-19T14:23:29.612Z,4.60
2018-09-19T14:25:57.915Z,5.27
2018-09-19T14:28:26.215Z,4.53
2018-09-19T14:30:54.489Z,4.80
2018-09-19T14:33:22.873Z,5.27
2018-09-19T14:35:51.225Z,4.60
2018-09-19T14:38:19.566Z,4.70
2018-09-19T14:40:47.874Z,4.73
2018-09-19T14:43:16.162Z,4.53
2018-09-19T14:45:44.546Z,5.33
2018-09-19T14:48:12.838Z,4.53
2018-09-19T14:50:41.121Z,4.77
2018-09-19T14:53:09.480Z,5.03
2018-09-19T14:55:37.777Z,4.70
2018-09-19T14:58:06.404Z,5.07
2018-09-19T15:00:34.721Z,4.63
2018-09-19T15:03:03.060Z,4.57
2018-09-19T15:05:31.449Z,5.00
2018-09-19T15:07:59.814Z,5.07
2018-09-19T15:10:28.329Z,5.37
2018-09-19T15:12:56.649Z,4.50
2018-09-19T15:15:24.998Z,5.50
2018-09-19T15:17:53.414Z,4.67
2018-09-19T15:20:21.857Z,4.60
2018-09-19T15:22:50.193Z,5.10
2018-09-19T15:25:18.512Z,5.37
2018-09-19T15:27:47.014Z,6.57
2018-09-19T15:30:15.313Z,5.03
2018-09-19T15:32:43.701Z,4.40
2018-09-19T15:35:18.718Z,4.43
2018-09-19T15:37:47.106Z,5.00
2018-09-19T15:40:15.388Z,4.50
2018-09-19T15:42:43.898Z,5.00
2018-09-19T15:45:12.516Z,5.27
2018-09-19T15:47:41.050Z,4.70
2018-09-19T15:50:09.513Z,4.33
2018-09-19T15:52:38.574Z,4.57
2018-09-19T15:55:06.938Z,4.77
2018-09-19T15:57:35.268Z,4.80
2018-09-19T16:00:04.755Z,5.17
2018-09-19T16:02:33.030Z,7.83
2018-09-19T16:05:01.366Z,5.00
2018-09-19T16:07:29.765Z,4.73
2018-09-19T16:09:58.055Z,4.23
2018-09-19T16:12:26.341Z,4.53
2018-09-19T16:14:54.915Z,5.53
2018-09-19T16:17:23.295Z,5.13
2018-09-19T16:19:51.613Z,5.60
2018-09-19T16:22:19.891Z,4.70
2018-09-19T16:24:49.071Z,5.07
2018-09-19T16:27:17.406Z,4.90
2018-09-19T16:29:45.752Z,5.27
2018-09-19T16:32:14.557Z,4.77
2018-09-19T16:34:42.906Z,4.97
2018-09-19T16:37:11.306Z,5.23
2018-09-19T16:39:39.663Z,5.20
2018-09-19T16:42:08.047Z,5.40
2018-09-19T16:44:36.377Z,5.50
2018-09-19T16:47:04.693Z,5.10
2018-09-19T16:49:32.972Z,4.97
2018-09-19T16:52:01.385Z,5.17
2018-09-19T16:54:29.705Z,5.40
2018-09-19T16:56:58.001Z,6.07
2018-09-19T16:59:26.332Z,4.90
2018-09-19T17:01:54.638Z,7.30
2018-09-19T17:04:22.978Z,33.27
2018-09-19T17:06:51.464Z,23.97
2018-09-19T17:09:20.009Z,8.00
2018-09-19T17:11:48.481Z,8.60
2018-09-19T17:14:16.833Z,22.00
2018-09-19T17:16:45.146Z,8.57
2018-09-19T17:19:13.470Z,6.20
2018-09-19T17:21:42.475Z,9.53
2018-09-19T17:24:10.771Z,14.50
2018-09-19T17:26:39.267Z,8.70
2018-09-19T17:29:07.591Z,21.90
2018-09-19T17:31:35.902Z,7.63
2018-09-19T17:34:04.199Z,12.00
2018-09-19T17:36:32.678Z,7.90
2018-09-19T17:39:01.044Z,14.03
2018-09-19T17:41:29.366Z,8.23
2018-09-19T17:43:58.308Z,7.10
2018-09-19T17:46:26.669Z,16.17
2018-09-19T17:48:55.160Z,12.63
2018-09-19T17:51:23.570Z,6.10
2018-09-19T17:53:52.125Z,6.90
2018-09-19T17:56:20.436Z,6.50
2018-09-19T17:58:49.099Z,8.03
2018-09-19T18:01:17.611Z,9.47
2018-09-19T18:03:46.018Z,6.03
2018-09-19T18:06:14.885Z,6.33
2018-09-19T18:08:43.258Z,6.00
2018-09-19T18:11:11.617Z,5.23
2018-09-19T18:13:40.051Z,4.97
2018-09-19T18:16:08.369Z,5.83
2018-09-19T18:18:37.181Z,5.27
2018-09-19T18:21:05.623Z,5.57
2018-09-19T18:23:34.013Z,6.07
2018-09-19T18:26:02.376Z,5.90
2018-09-19T18:28:30.701Z,6.37
2018-09-19T18:30:59.407Z,6.50
2018-09-19T18:33:28.133Z,6.43
2018-09-19T18:35:56.801Z,7.93
2018-09-19T18:38:25.456Z,6.07
2018-09-19T18:40:53.711Z,6.90
2018-09-19T18:43:22.050Z,6.10
2018-09-19T18:45:50.406Z,7.97
2018-09-19T18:48:18.745Z,7.10
2018-09-19T18:50:47.329Z,6.87
2018-09-19T18:53:15.790Z,7.57
2018-09-19T18:55:44.284Z,6.87
2018-09-19T18:58:13.673Z,6.30
2018-09-19T19:00:42.605Z,5.87
2018-09-19T19:03:11.954Z,6.00
2018-09-19T19:05:40.819Z,6.20
2018-09-19T19:08:09.547Z,6.70
2018-09-19T19:10:39.866Z,5.80
2018-09-19T19:13:09.436Z,6.00
2018-09-19T19:15:38.170Z,6.50
2018-09-19T19:18:06.538Z,5.83
2018-09-19T19:20:35.337Z,5.10
2018-09-19T19:23:09.834Z,6.17
2018-09-19T19:25:38.238Z,5.60
2018-09-19T19:28:07.428Z,5.60
2018-09-19T19:30:36.211Z,5.67
2018-09-19T19:33:04.561Z,6.00
2018-09-19T19:35:35.054Z,6.40
2018-09-19T19:38:07.143Z,5.70
2018-09-19T19:40:35.419Z,5.80
2018-09-19T19:43:03.699Z,7.73
2018-09-19T19:45:33.847Z,5.90
2018-09-19T19:48:02.288Z,7.13
2018-09-19T19:50:30.879Z,6.10
2018-09-19T19:52:59.714Z,7.20
2018-09-19T19:55:28.022Z,5.90
2018-09-19T19:57:56.759Z,6.40
2018-09-19T20:00:25.486Z,6.80
2018-09-19T20:02:53.802Z,6.47
2018-09-19T20:05:22.744Z,5.77
2018-09-19T20:07:51.154Z,7.07
2018-09-19T20:10:19.744Z,7.70
2018-09-19T20:12:48.101Z,6.77
2018-09-19T20:15:17.788Z,6.50
2018-09-19T20:17:46.641Z,7.10
2018-09-19T20:20:15.027Z,6.20
2018-09-19T20:22:43.449Z,11.43
2018-09-19T20:25:11.850Z,7.50
2018-09-19T20:27:40.138Z,7.10
2018-09-19T20:30:08.769Z,7.40
2018-09-19T20:32:37.049Z,8.93
2018-09-19T20:35:05.375Z,10.90
2018-09-19T20:37:33.749Z,8.10
2018-09-19T20:40:02.038Z,7.47
2018-09-19T20:42:30.349Z,6.90
2018-09-19T20:44:59.553Z,7.63
2018-09-19T20:47:27.964Z,9.73
2018-09-19T20:49:56.225Z,14.97
2018-09-19T20:52:24.498Z,11.13
2018-09-19T20:54:52.773Z,9.57
2018-09-19T20:57:21.017Z,9.20
2018-09-19T20:59:49.349Z,7.80
2018-09-19T21:02:17.654Z,8.03
2018-09-19T21:04:45.999Z,8.43
2018-09-19T21:07:14.449Z,8.10
2018-09-19T21:09:42.706Z,6.93
2018-09-19T21:12:10.997Z,11.47
2018-09-19T21:14:39.272Z,8.20
2018-09-19T21:17:07.553Z,12.43
2018-09-19T21:19:35.861Z,7.50
2018-09-19T21:22:04.296Z,5.90
2018-09-19T21:24:32.622Z,7.23
2018-09-19T21:27:00.927Z,8.07
2018-09-19T21:29:29.241Z,8.13
2018-09-19T21:31:57.572Z,6.87
2018-09-19T21:34:26.493Z,7.03
2018-09-19T21:36:54.816Z,14.63
2018-09-19T21:39:23.098Z,13.57
2018-09-19T21:41:51.409Z,6.27
2018-09-19T21:44:19.857Z,6.60
2018-09-19T21:46:48.189Z,6.60
2018-09-19T21:49:16.578Z,6.50
2018-09-19T21:51:44.990Z,14.70
2018-09-19T21:54:13.290Z,9.30
2018-09-19T21:56:41.683Z,7.00
2018-09-19T21:59:10.138Z,9.73
2018-09-19T22:01:43.326Z,7.67
2018-09-19T22:04:12.201Z,9.30
2018-09-19T22:06:40.978Z,12.40
2018-09-19T22:09:11.487Z,9.40
2018-09-19T22:11:39.962Z,9.50
2018-09-19T22:14:08.326Z,6.37
2018-09-19T22:16:36.633Z,9.20
2018-09-19T22:19:05.473Z,9.10
2018-09-19T22:21:33.759Z,8.67
2018-09-19T22:24:02.110Z,8.20
2018-09-19T22:26:30.389Z,8.30
2018-09-19T22:28:58.773Z,13.77
2018-09-19T22:31:27.325Z,13.00
2018-09-19T22:33:55.651Z,15.30
2018-09-19T22:36:24.024Z,11.57
2018-09-19T22:38:52.365Z,17.13
2018-09-19T22:41:21.209Z,14.77
2018-09-19T22:43:49.833Z,9.07
2018-09-19T22:46:18.143Z,7.20
2018-09-19T22:48:46.861Z,5.87
2018-09-19T22:51:15.171Z,6.30
2018-09-19T22:53:43.771Z,6.07
2018-09-19T22:56:12.225Z,5.87
2018-09-19T22:58:40.560Z,5.83
2018-09-19T23:01:08.854Z,6.20
2018-09-19T23:03:37.205Z,5.90
2018-09-19T23:06:05.551Z,6.10
2018-09-19T23:08:33.882Z,5.43
2018-09-19T23:11:02.230Z,6.30
2018-09-19T23:13:30.525Z,6.50
2018-09-19T23:15:58.837Z,6.90
2018-09-19T23:18:27.193Z,6.00
2018-09-19T23:20:55.622Z,6.47
2018-09-19T23:23:24.018Z,6.90
2018-09-19T23:25:52.343Z,6.27
2018-09-19T23:28:20.629Z,6.33
2018-09-19T23:30:48.938Z,6.13
2018-09-19T23:33:17.288Z,6.57
2018-09-19T23:35:45.610Z,6.40
2018-09-19T23:38:13.892Z,6.20
2018-09-19T23:40:42.362Z,5.93
2018-09-19T23:43:10.667Z,6.93
2018-09-19T23:45:39.003Z,6.60
2018-09-19T23:48:07.301Z,6.37
2018-09-19T23:50:35.596Z,6.63
2018-09-19T23:53:03.889Z,7.30
2018-09-19T23:55:32.280Z,7.33
2018-09-19T23:58:00.699Z,6.47
